Time;durP1;ratioP1;P1;durP2;ratioP2;P2;SDS_P1;SDS_P2;PMS_P1;PMS_P2;Temp;Humidity;BMP_temperature;BMP_pressure;BME280_temperature;BME280_humidity;BME280_pressure;Samples;Min_cycle;Max_cycle;Signal;HPM_P1;HPM_P2
2021/11/14 00:02:02;;;;;;;1.63;0.55;;;;;;;13.13;100.00;100493.41;5096685;28;20081;-51
2021/11/14 00:05:07;;;;;;;6.10;1.30;;;;;;;13.13;100.00;100494.19;5096140;28;20082;-51
2021/11/14 00:08:12;;;;;;;1.65;0.65;;;;;;;13.13;100.00;100502.59;5096486;28;20566;-51
2021/11/14 00:11:17;;;;;;;0.73;0.73;;;;;;;13.21;100.00;100498.16;5095516;28;20066;-51
2021/11/14 00:14:22;;;;;;;8.60;1.75;;;;;;;13.18;100.00;100492.75;5094882;28;20047;-51
2021/11/14 00:17:27;;;;;;;1.23;0.73;;;;;;;13.20;100.00;100507.81;5094627;28;20081;-51
2021/11/14 00:20:30;;;;;;;3.33;0.63;;;;;;;13.20;100.00;100509.84;5094434;28;20131;-56
2021/11/14 00:23:33;;;;;;;1.52;1.00;;;;;;;13.19;100.00;100509.06;5094252;28;20082;-57
2021/11/14 00:26:36;;;;;;;2.40;0.70;;;;;;;13.23;100.00;100511.69;5096046;28;20105;-57
2021/11/14 00:29:39;;;;;;;1.85;1.08;;;;;;;13.15;100.00;100514.06;5095899;28;20097;-56
2021/11/14 00:32:42;;;;;;;15.45;1.48;;;;;;;13.09;100.00;100524.38;5096282;28;20062;-57
2021/11/14 00:35:48;;;;;;;3.88;0.95;;;;;;;13.19;100.00;100525.09;5095904;28;20043;-57
2021/11/14 00:38:52;;;;;;;2.70;1.33;;;;;;;13.10;100.00;100525.94;5095835;28;20097;-57
2021/11/14 00:41:55;;;;;;;10.30;1.30;;;;;;;13.07;100.00;100521.28;5095475;28;20053;-56
2021/11/14 00:44:58;;;;;;;10.32;1.10;;;;;;;13.13;100.00;100524.19;5095996;28;20047;-55
2021/11/14 00:48:02;;;;;;;6.47;1.55;;;;;;;13.12;100.00;100529.03;5095603;28;20139;-55
2021/11/14 00:51:06;;;;;;;1.17;0.57;;;;;;;13.21;100.00;100531.72;5095939;28;20590;-56
2021/11/14 00:54:09;;;;;;;1.92;0.77;;;;;;;13.11;100.00;100526.69;5095747;28;20047;-56
2021/11/14 00:57:12;;;;;;;2.58;0.80;;;;;;;13.17;100.00;100531.13;5094911;28;20058;-56
2021/11/14 01:00:21;;;;;;;5.53;0.70;;;;;;;13.15;100.00;100535.66;5095427;28;20046;-55
2021/11/14 01:03:24;;;;;;;0.70;0.70;;;;;;;13.08;100.00;100527.66;5095465;28;20051;-55
2021/11/14 01:06:28;;;;;;;4.65;0.75;;;;;;;13.10;100.00;100520.34;5095422;28;20373;-55
2021/11/14 01:09:31;;;;;;;2.13;0.88;;;;;;;13.18;100.00;100523.53;5095548;28;20167;-56
2021/11/14 01:12:34;;;;;;;7.13;1.20;;;;;;;13.16;100.00;100526.81;5095415;28;20047;-56
2021/11/14 01:15:40;;;;;;;3.42;1.15;;;;;;;13.19;100.00;100523.03;5095228;28;20412;-56
2021/11/14 01:18:43;;;;;;;1.88;1.23;;;;;;;13.19;100.00;100528.63;5095118;28;20089;-57
2021/11/14 01:21:46;;;;;;;6.18;0.77;;;;;;;13.09;100.00;100535.56;5094943;28;20043;-56
2021/11/14 01:24:49;;;;;;;8.77;1.25;;;;;;;13.14;100.00;100546.09;5095081;28;20058;-57
2021/11/14 01:27:52;;;;;;;2.20;1.98;;;;;;;13.10;100.00;100533.53;5094840;28;20404;-57
2021/11/14 01:30:57;;;;;;;0.93;0.60;;;;;;;13.09;100.00;100526.38;5094827;28;20123;-58
2021/11/14 01:34:00;;;;;;;2.53;0.50;;;;;;;13.10;100.00;100527.94;5094839;28;20435;-57
2021/11/14 01:37:04;;;;;;;2.33;0.57;;;;;;;12.97;100.00;100533.75;5094795;28;20534;-56
2021/11/14 01:40:07;;;;;;;3.67;1.17;;;;;;;12.89;100.00;100522.13;5094573;28;20047;-56
2021/11/14 01:43:15;;;;;;;2.97;0.95;;;;;;;12.88;100.00;100531.78;5094691;28;20051;-56
2021/11/14 01:46:19;;;;;;;7.53;0.63;;;;;;;12.85;100.00;100537.53;5094384;28;20051;-56
2021/11/14 01:49:22;;;;;;;1.77;0.82;;;;;;;12.89;100.00;100538.91;5094591;28;20046;-56
2021/11/14 01:52:28;;;;;;;0.82;0.82;;;;;;;12.94;100.00;100545.88;5094354;28;20522;-55
2021/11/14 01:55:33;;;;;;;1.45;1.08;;;;;;;13.00;100.00;100538.38;5093839;28;20057;-57
2021/11/14 01:58:37;;;;;;;1.02;0.82;;;;;;;12.95;100.00;100541.81;5092437;28;20531;-56
2021/11/14 02:01:40;;;;;;;3.70;0.95;;;;;;;12.88;100.00;100547.78;5093318;28;20046;-56
2021/11/14 02:04:45;;;;;;;1.40;0.60;;;;;;;12.88;100.00;100554.16;5093479;28;20043;-56
2021/11/14 02:07:53;;;;;;;7.50;1.70;;;;;;;12.85;100.00;100545.91;5093371;28;20166;-56
2021/11/14 02:10:57;;;;;;;5.25;1.08;;;;;;;12.82;100.00;100549.69;5093240;28;20047;-56
2021/11/14 02:14:00;;;;;;;4.88;1.05;;;;;;;12.76;100.00;100551.56;5094002;28;20093;-56
2021/11/14 02:17:05;;;;;;;1.83;0.60;;;;;;;12.71;100.00;100555.75;5094102;28;20097;-56
2021/11/14 02:20:09;;;;;;;2.08;0.90;;;;;;;12.69;100.00;100558.25;5093436;28;20082;-56
2021/11/14 02:23:16;;;;;;;5.78;1.02;;;;;;;12.77;100.00;100555.91;5093356;28;20047;-56
2021/11/14 02:26:22;;;;;;;2.33;1.20;;;;;;;12.70;100.00;100564.63;5071510;28;20071;-56
2021/11/14 02:29:26;;;;;;;4.90;1.40;;;;;;;12.61;100.00;100557.06;5072651;28;20522;-56
2021/11/14 02:32:29;;;;;;;8.32;1.85;;;;;;;12.78;100.00;100549.06;5073693;28;20074;-56
2021/11/14 02:35:33;;;;;;;1.45;0.65;;;;;;;12.84;100.00;100558.38;5072980;28;20098;-56
2021/11/14 02:38:37;;;;;;;5.30;1.63;;;;;;;12.70;100.00;100559.81;5072853;28;20058;-56
2021/11/14 02:41:40;;;;;;;11.57;1.65;;;;;;;12.53;100.00;100560.66;5072365;28;20089;-56
2021/11/14 02:44:43;;;;;;;0.75;0.73;;;;;;;12.36;100.00;100573.47;5072701;28;20039;-56
2021/11/14 02:47:48;;;;;;;2.17;1.17;;;;;;;12.16;100.00;100577.56;5072662;28;20066;-56
2021/11/14 02:50:54;;;;;;;2.40;1.55;;;;;;;11.90;100.00;100570.00;5072877;28;20067;-54
2021/11/14 02:53:57;;;;;;;3.22;1.38;;;;;;;11.67;100.00;100567.84;5074313;28;20091;-56
2021/11/14 02:57:00;;;;;;;1.17;0.90;;;;;;;11.44;100.00;100569.19;5092776;28;20077;-56
2021/11/14 03:00:27;;;;;;;7.28;1.48;;;;;;;11.31;100.00;100571.34;5092656;28;20484;-56
2021/11/14 03:03:31;;;;;;;1.65;1.20;;;;;;;11.22;100.00;100571.34;5092558;28;20098;-56
2021/11/14 03:06:34;;;;;;;13.32;1.67;;;;;;;11.12;100.00;100575.34;5092813;28;20043;-55
2021/11/14 03:09:37;;;;;;;18.35;3.03;;;;;;;11.03;100.00;100570.53;5093020;28;20055;-56
2021/11/14 03:12:41;;;;;;;6.00;1.55;;;;;;;10.77;100.00;100580.38;5092906;28;20127;-56
2021/11/14 03:15:49;;;;;;;11.15;1.15;;;;;;;10.58;100.00;100571.19;5092653;28;20561;-56
2021/11/14 03:18:56;;;;;;;10.05;1.42;;;;;;;10.61;100.00;100572.28;5092900;28;20051;-56
2021/11/14 03:21:59;;;;;;;5.22;1.83;;;;;;;10.51;100.00;100579.03;5092838;28;20046;-56
2021/11/14 03:25:02;;;;;;;1.42;1.13;;;;;;;10.40;100.00;100568.31;5092678;28;20050;-56
2021/11/14 03:28:06;;;;;;;2.88;0.95;;;;;;;10.25;100.00;100572.88;5092388;28;20470;-56
2021/11/14 03:31:09;;;;;;;3.25;0.85;;;;;;;10.18;100.00;100573.13;5092671;28;20039;-56
2021/11/14 03:34:13;;;;;;;5.40;1.23;;;;;;;10.16;100.00;100574.81;5092625;28;20047;-55
2021/11/14 03:37:19;;;;;;;0.68;0.63;;;;;;;9.92;100.00;100575.25;5093176;28;20132;-56
2021/11/14 03:40:22;;;;;;;4.45;0.77;;;;;;;10.06;100.00;100575.97;5092777;28;20512;-55
2021/11/14 03:43:27;;;;;;;3.58;1.65;;;;;;;9.93;100.00;100573.28;5092639;28;20042;-54
2021/11/14 03:46:30;;;;;;;4.47;0.93;;;;;;;9.85;100.00;100583.09;5092361;28;20046;-56
2021/11/14 03:49:33;;;;;;;1.58;0.73;;;;;;;9.88;100.00;100577.41;5092378;28;20039;-56
2021/11/14 03:52:37;;;;;;;2.70;1.33;;;;;;;9.90;100.00;100574.16;5092121;28;20089;-56
2021/11/14 03:55:41;;;;;;;22.33;1.55;;;;;;;9.84;100.00;100573.97;5075318;28;20102;-56
2021/11/14 03:58:44;;;;;;;3.35;1.90;;;;;;;9.86;100.00;100573.53;5071211;28;20451;-56
2021/11/14 04:01:47;;;;;;;1.40;0.63;;;;;;;9.82;100.00;100567.31;5072486;28;20083;-56
2021/11/14 04:04:50;;;;;;;2.95;1.20;;;;;;;9.65;100.00;100563.19;5071668;28;20124;-56
2021/11/14 04:07:53;;;;;;;1.85;0.73;;;;;;;9.51;100.00;100558.09;5072203;28;20102;-56
2021/11/14 04:10:59;;;;;;;4.78;1.35;;;;;;;9.48;100.00;100570.16;5071828;28;20063;-56
2021/11/14 04:14:02;;;;;;;11.98;1.23;;;;;;;9.43;100.00;100571.50;5072378;28;20178;-56
2021/11/14 04:17:05;;;;;;;4.35;0.75;;;;;;;9.34;100.00;100576.19;5085135;28;20051;-56
2021/11/14 04:20:11;;;;;;;3.42;1.90;;;;;;;9.29;100.00;100582.34;5092756;28;20038;-56
2021/11/14 04:23:17;;;;;;;2.10;1.50;;;;;;;9.29;100.00;100587.88;5092422;28;20148;-56
2021/11/14 04:26:21;;;;;;;2.67;1.10;;;;;;;9.30;100.00;100586.66;5091982;28;20047;-56
2021/11/14 04:29:24;;;;;;;2.75;1.40;;;;;;;9.28;100.00;100594.66;5091975;28;20404;-56
2021/11/14 04:32:27;;;;;;;4.43;1.10;;;;;;;9.26;100.00;100591.56;5093929;28;20043;-56
2021/11/14 04:35:30;;;;;;;5.72;1.70;;;;;;;9.18;100.00;100596.59;5096261;28;20042;-56
2021/11/14 04:38:35;;;;;;;0.93;0.80;;;;;;;9.05;100.00;100593.81;5096200;28;20137;-56
2021/11/14 04:41:38;;;;;;;2.67;1.13;;;;;;;8.94;100.00;100593.38;5095788;28;20058;-56
2021/11/14 04:44:41;;;;;;;1.38;1.05;;;;;;;8.90;100.00;100598.28;5095700;28;20113;-56
2021/11/14 04:47:44;;;;;;;3.28;1.77;;;;;;;8.86;100.00;100600.41;5095592;28;20046;-56
2021/11/14 04:50:46;;;;;;;3.58;1.42;;;;;;;8.79;100.00;100606.16;5095697;28;20089;-56
2021/11/14 04:53:50;;;;;;;0.95;0.90;;;;;;;8.79;100.00;100608.94;5095846;28;20051;-56
2021/11/14 04:56:53;;;;;;;4.05;1.98;;;;;;;8.73;100.00;100613.50;5095572;28;20055;-56
2021/11/14 04:59:58;;;;;;;3.15;1.27;;;;;;;8.70;100.00;100617.19;5095439;28;20078;-56
2021/11/14 05:03:01;;;;;;;4.43;1.23;;;;;;;8.66;100.00;100602.66;5094805;28;20500;-56
2021/11/14 05:06:08;;;;;;;3.53;1.08;;;;;;;8.63;100.00;100613.84;5095354;28;20043;-56
2021/11/14 05:09:11;;;;;;;4.13;1.27;;;;;;;8.52;100.00;100627.25;5095665;28;20452;-56
2021/11/14 05:12:14;;;;;;;4.03;1.02;;;;;;;8.40;100.00;100606.63;5095908;28;20070;-56
2021/11/14 05:15:17;;;;;;;4.30;1.55;;;;;;;8.33;100.00;100609.59;5094923;28;20042;-56
2021/11/14 05:18:20;;;;;;;1.05;0.63;;;;;;;8.31;100.00;100604.50;5074923;28;20043;-56
2021/11/14 05:21:23;;;;;;;2.42;1.25;;;;;;;8.30;100.00;100616.03;5074973;28;20047;-56
2021/11/14 05:24:26;;;;;;;3.55;1.85;;;;;;;8.28;100.00;100619.25;5075073;28;20107;-56
2021/11/14 05:27:29;;;;;;;0.60;0.60;;;;;;;8.32;100.00;100621.91;5075125;28;20500;-56
2021/11/14 05:30:31;;;;;;;1.83;1.38;;;;;;;8.22;100.00;100625.75;5074942;28;20039;-56
2021/11/14 05:33:34;;;;;;;4.30;1.05;;;;;;;8.17;100.00;100634.63;5074898;28;20481;-56
2021/11/14 05:36:38;;;;;;;2.13;0.90;;;;;;;8.14;100.00;100641.81;5074750;28;20048;-56
2021/11/14 05:39:40;;;;;;;1.63;1.33;;;;;;;8.16;100.00;100633.06;5074446;28;20067;-56
2021/11/14 05:42:43;;;;;;;6.60;1.52;;;;;;;8.10;100.00;100629.28;5073903;28;20542;-56
2021/11/14 05:45:47;;;;;;;10.10;1.33;;;;;;;8.06;100.00;100636.91;5074403;28;20101;-56
2021/11/14 05:48:50;;;;;;;1.10;1.00;;;;;;;8.05;100.00;100633.38;5074101;28;20051;-56
2021/11/14 05:51:53;;;;;;;3.28;0.98;;;;;;;8.03;100.00;100629.47;5074291;28;20443;-56
2021/11/14 05:54:56;;;;;;;1.90;1.33;;;;;;;7.99;100.00;100639.91;5074374;28;20043;-56
2021/11/14 05:58:09;;;;;;;0.30;0.15;;;;;;;7.90;100.00;100642.53;5074123;28;20043;-56
2021/11/14 06:04:29;;;;;;;4.75;0.95;;;;;;;7.92;100.00;100648.41;5074145;28;20038;-57
2021/11/14 06:07:32;;;;;;;1.05;0.98;;;;;;;7.90;100.00;100654.41;5074160;28;20069;-57
2021/11/14 06:10:35;;;;;;;0.50;0.40;;;;;;;7.87;100.00;100654.47;5074012;28;20054;-56
2021/11/14 06:13:38;;;;;;;4.60;1.88;;;;;;;7.85;100.00;100668.00;5073989;28;20048;-56
2021/11/14 06:16:41;;;;;;;1.05;0.80;;;;;;;7.83;100.00;100676.00;5084202;28;20451;-56
2021/11/14 06:19:44;;;;;;;0.50;0.50;;;;;;;7.81;100.00;100678.41;5093886;28;20496;-56
2021/11/14 06:22:47;;;;;;;1.95;1.42;;;;;;;7.76;100.00;100676.94;5093784;28;20043;-56
2021/11/14 06:25:50;;;;;;;0.95;0.63;;;;;;;7.72;100.00;100675.50;5093524;28;20092;-56
2021/11/14 06:28:53;;;;;;;8.10;2.58;;;;;;;7.70;100.00;100686.25;5093532;28;20460;-58
2021/11/14 06:31:56;;;;;;;1.23;0.85;;;;;;;7.70;100.00;100681.47;5093742;28;20435;-56
2021/11/14 06:34:59;;;;;;;2.60;0.73;;;;;;;7.66;100.00;100697.44;5093537;28;20071;-56
2021/11/14 06:38:03;;;;;;;1.17;1.00;;;;;;;7.59;100.00;100701.16;5093478;28;20487;-56
2021/11/14 06:41:08;;;;;;;2.13;1.25;;;;;;;7.63;100.00;100712.94;5093669;28;20055;-55
2021/11/14 06:44:11;;;;;;;2.47;0.98;;;;;;;7.73;100.00;100708.34;5093832;28;20055;-56
2021/11/14 06:47:15;;;;;;;6.15;1.30;;;;;;;7.84;100.00;100711.59;5093295;28;20127;-56
2021/11/14 06:50:18;;;;;;;5.10;1.10;;;;;;;7.78;100.00;100713.34;5093543;28;20054;-55
2021/11/14 06:53:21;;;;;;;8.48;1.40;;;;;;;7.80;100.00;100712.91;5093122;28;20523;-56
2021/11/14 06:56:24;;;;;;;9.07;1.83;;;;;;;7.68;100.00;100714.41;5092583;28;20096;-56
2021/11/14 06:59:27;;;;;;;2.95;0.77;;;;;;;7.65;100.00;100716.03;5093182;28;20043;-55
2021/11/14 07:02:30;;;;;;;3.58;0.60;;;;;;;7.74;100.00;100722.97;5093369;28;20051;-55
2021/11/14 07:05:33;;;;;;;1.15;1.10;;;;;;;7.66;100.00;100727.91;5093323;28;20131;-56
2021/11/14 07:08:36;;;;;;;4.50;1.38;;;;;;;7.61;100.00;100737.53;5093025;28;20043;-56
2021/11/14 07:11:39;;;;;;;0.90;0.63;;;;;;;7.54;100.00;100743.25;5092876;28;20491;-56
2021/11/14 07:14:42;;;;;;;0.80;0.80;;;;;;;7.48;100.00;100739.44;5093128;28;20082;-55
2021/11/14 07:17:45;;;;;;;5.07;0.85;;;;;;;7.49;100.00;100749.28;5093024;28;20423;-56
2021/11/14 07:20:48;;;;;;;2.03;1.05;;;;;;;7.52;100.00;100745.66;5092481;28;20051;-56
2021/11/14 07:23:52;;;;;;;1.17;0.40;;;;;;;7.51;100.00;100755.19;5092543;28;20721;-56
2021/11/14 07:26:55;;;;;;;7.78;1.67;;;;;;;7.54;100.00;100753.53;5093309;28;20055;-55
2021/11/14 07:29:58;;;;;;;2.50;1.08;;;;;;;7.54;100.00;100748.78;5092805;28;20054;-55
2021/11/14 07:33:01;;;;;;;3.83;0.98;;;;;;;7.49;100.00;100759.63;5093232;28;20051;-56
2021/11/14 07:36:04;;;;;;;1.67;1.33;;;;;;;7.43;100.00;100759.34;5092731;28;20047;-55
2021/11/14 07:39:10;;;;;;;5.38;0.65;;;;;;;7.41;100.00;100761.78;5092387;28;20118;-56
2021/11/14 07:42:13;;;;;;;0.50;0.50;;;;;;;7.42;100.00;100768.88;5092765;28;20070;-56
2021/11/14 07:45:18;;;;;;;1.85;1.05;;;;;;;7.46;100.00;100768.78;5092806;28;20039;-56
2021/11/14 07:48:21;;;;;;;7.82;1.88;;;;;;;7.49;100.00;100765.16;5092691;28;20097;-56
2021/11/14 07:51:24;;;;;;;10.57;2.55;;;;;;;7.59;100.00;100775.22;5093180;28;20050;-56
2021/11/14 07:54:27;;;;;;;16.67;3.33;;;;;;;7.70;100.00;100772.19;5092648;28;20043;-56
2021/11/14 07:57:29;;;;;;;8.13;1.88;;;;;;;7.85;100.00;100767.84;5092346;28;20097;-56
2021/11/14 08:00:35;;;;;;;12.55;2.47;;;;;;;7.99;100.00;100773.78;5092763;28;20385;-56
2021/11/14 08:03:39;;;;;;;10.55;3.67;;;;;;;8.11;100.00;100769.53;5092563;28;20401;-55
2021/11/14 08:06:42;;;;;;;12.52;4.63;;;;;;;8.29;100.00;100775.44;5094997;28;20059;-55
2021/11/14 08:09:44;;;;;;;10.85;2.58;;;;;;;8.33;100.00;100770.56;5096425;28;20077;-55
2021/11/14 08:12:48;;;;;;;16.83;2.85;;;;;;;8.37;100.00;100776.78;5096649;28;20121;-55
2021/11/14 08:15:52;;;;;;;14.98;3.33;;;;;;;8.29;100.00;100775.44;5096402;28;20039;-56
2021/11/14 08:18:55;;;;;;;10.80;3.13;;;;;;;8.20;100.00;100778.03;5096417;28;20063;-56
2021/11/14 08:21:57;;;;;;;8.65;3.38;;;;;;;8.12;100.00;100787.75;5096267;28;20062;-56
2021/11/14 08:25:01;;;;;;;5.60;2.05;;;;;;;8.10;100.00;100790.19;5095597;28;20081;-56
2021/11/14 08:28:04;;;;;;;0.63;0.63;;;;;;;8.06;100.00;100789.47;5095640;28;20093;-56
2021/11/14 08:31:07;;;;;;;13.13;2.90;;;;;;;8.02;100.00;100791.56;5096770;28;20081;-56
2021/11/14 08:34:10;;;;;;;19.58;2.95;;;;;;;8.23;100.00;100793.78;5096130;28;20047;-56
2021/11/14 08:37:13;;;;;;;19.75;2.60;;;;;;;8.47;100.00;100802.72;5096237;28;20054;-56
2021/11/14 08:40:16;;;;;;;14.32;3.22;;;;;;;8.67;100.00;100800.53;5095805;28;20050;-56
2021/11/14 08:43:19;;;;;;;17.10;3.33;;;;;;;8.81;100.00;100792.59;5096092;28;20110;-55
2021/11/14 08:46:22;;;;;;;4.78;1.77;;;;;;;9.00;100.00;100794.41;5095750;28;20047;-56
2021/11/14 08:49:26;;;;;;;2.00;1.70;;;;;;;9.17;100.00;100795.09;5095615;28;20258;-56
2021/11/14 08:55:17;;;;;;;4.45;1.83;;;;;;;9.37;100.00;100797.69;5036748;22;20063;-50
2021/11/14 08:58:21;;;;;;;2.10;1.42;;;;;;;9.62;100.00;100789.31;4951835;28;20100;-79
2021/11/14 09:01:24;;;;;;;8.48;2.05;;;;;;;9.85;100.00;100797.31;4970481;28;20052;-78
2021/11/14 09:04:28;;;;;;;4.43;1.52;;;;;;;10.00;100.00;100798.41;5001767;28;20593;-78
2021/11/14 09:07:31;;;;;;;4.95;2.97;;;;;;;10.15;100.00;100796.72;5001272;28;20091;-79
2021/11/14 09:10:36;;;;;;;1.80;1.02;;;;;;;10.26;100.00;100796.34;4983398;28;20150;-79
2021/11/14 09:18:01;;;;;;;3.75;1.02;;;;;;;10.37;100.00;100803.09;5030628;28;20084;-80
2021/11/14 09:21:05;;;;;;;11.48;1.98;;;;;;;10.32;100.00;100800.91;5032666;28;20126;-80
2021/11/14 09:24:09;;;;;;;4.05;2.17;;;;;;;10.51;100.00;100808.19;5026417;28;20040;-81
2021/11/14 09:27:12;;;;;;;7.13;0.98;;;;;;;10.83;100.00;100806.25;5036906;28;20560;-82
2021/11/14 09:30:16;;;;;;;6.10;2.42;;;;;;;10.99;100.00;100815.19;5031103;28;20142;-82
2021/11/14 09:33:23;;;;;;;7.78;2.47;;;;;;;11.10;100.00;100814.78;5031074;28;20106;-81
2021/11/14 09:36:32;;;;;;;56.35;9.30;;;;;;;11.20;100.00;100816.38;5029792;28;20048;-81
2021/11/14 09:39:35;;;;;;;22.05;4.25;;;;;;;11.30;100.00;100806.84;5031118;28;20048;-81
2021/11/14 09:42:38;;;;;;;14.63;3.40;;;;;;;11.45;100.00;100810.63;5031854;28;20052;-81
2021/11/14 09:45:41;;;;;;;6.90;1.85;;;;;;;11.54;100.00;100818.25;5029847;28;20108;-79
2021/11/14 09:48:44;;;;;;;14.68;3.72;;;;;;;11.63;100.00;100819.06;5030075;28;20168;-80
2021/11/14 09:51:48;;;;;;;6.03;3.53;;;;;;;11.65;100.00;100815.81;5030155;28;20036;-80
2021/11/14 09:54:51;;;;;;;6.55;2.53;;;;;;;11.74;100.00;100818.66;5031192;28;20505;-80
2021/11/14 09:57:54;;;;;;;2.20;2.00;;;;;;;11.79;100.00;100816.03;5017163;28;20051;-81
2021/11/14 10:00:58;;;;;;;4.28;2.72;;;;;;;11.92;100.00;100825.09;5026118;28;20048;-84
2021/11/14 10:04:02;;;;;;;9.23;2.60;;;;;;;11.96;100.00;100825.72;5030801;28;20045;-84
2021/11/14 10:07:15;;;;;;;7.45;2.80;;;;;;;12.13;100.00;100824.19;5030187;28;20064;-83
2021/11/14 10:10:19;;;;;;;7.25;1.48;;;;;;;12.25;100.00;100830.09;5031727;28;20549;-82
2021/11/14 10:13:27;;;;;;;9.27;1.92;;;;;;;12.31;100.00;100825.47;5028086;28;20128;-82
2021/11/14 10:16:31;;;;;;;3.97;1.38;;;;;;;12.40;100.00;100837.44;5029441;28;20044;-83
2021/11/14 10:19:35;;;;;;;4.18;2.53;;;;;;;12.54;100.00;100841.63;5030354;28;20091;-82
2021/11/14 10:22:43;;;;;;;1.35;1.15;;;;;;;12.64;100.00;100837.59;5031631;28;20099;-83
2021/11/14 10:25:49;;;;;;;1.55;1.23;;;;;;;12.64;100.00;100840.38;5031751;28;20407;-82
2021/11/14 10:28:57;;;;;;;2.25;0.75;;;;;;;12.75;100.00;100832.31;5031379;28;20576;-83
2021/11/14 10:32:07;;;;;;;1.10;0.80;;;;;;;12.89;100.00;100842.84;5028265;28;20052;-82
2021/11/14 10:35:11;;;;;;;4.60;1.63;;;;;;;13.00;100.00;100847.97;5024523;28;20053;-83
2021/11/14 10:38:19;;;;;;;1.98;1.38;;;;;;;12.99;100.00;100843.63;5012297;28;20105;-82
2021/11/14 10:41:21;;;;;;;7.55;2.00;;;;;;;13.02;100.00;100843.44;5012426;28;20045;-81
2021/11/14 10:44:24;;;;;;;6.88;1.92;;;;;;;13.15;100.00;100846.09;5011118;28;20056;-81
2021/11/14 10:47:29;;;;;;;4.70;1.38;;;;;;;13.22;100.00;100846.56;5032022;28;20045;-83
2021/11/14 10:50:36;;;;;;;11.88;2.88;;;;;;;13.28;100.00;100844.69;5031994;28;20048;-81
2021/11/14 10:53:41;;;;;;;36.53;9.27;;;;;;;13.41;100.00;100845.25;5031120;28;20192;-82
2021/11/14 10:56:44;;;;;;;41.45;8.05;;;;;;;13.52;100.00;100836.38;5031556;28;20057;-82
2021/11/14 10:59:50;;;;;;;12.48;4.85;;;;;;;13.31;100.00;100838.16;5030815;28;20049;-82
2021/11/14 11:02:54;;;;;;;13.18;5.18;;;;;;;13.52;100.00;100837.16;5031465;28;20084;-82
2021/11/14 11:05:57;;;;;;;14.95;3.97;;;;;;;13.48;100.00;100830.16;5032067;28;20072;-80
2021/11/14 11:09:02;;;;;;;8.13;4.13;;;;;;;13.85;100.00;100836.38;5009605;28;21014;-79
2021/11/14 11:12:21;;;;;;;6.43;2.28;;;;;;;14.05;100.00;100831.00;4999551;28;20604;-79
2021/11/14 11:15:24;;;;;;;2.17;1.98;;;;;;;14.15;100.00;100843.69;4999031;28;20103;-79
2021/11/14 11:18:27;;;;;;;3.78;1.48;;;;;;;14.13;100.00;100844.16;5000619;28;20048;-80
2021/11/14 11:21:49;;;;;;;7.03;3.40;;;;;;;14.22;100.00;100844.13;5000528;28;20076;-80
2021/11/14 11:24:55;;;;;;;3.63;1.48;;;;;;;14.23;100.00;100851.25;4998589;28;20091;-80
2021/11/14 11:27:58;;;;;;;3.45;2.38;;;;;;;14.37;100.00;100844.19;4998932;28;20045;-80
2021/11/14 11:31:08;;;;;;;7.97;1.65;;;;;;;14.53;100.00;100849.34;5001173;28;20140;-79
2021/11/14 11:34:11;;;;;;;4.90;1.17;;;;;;;14.56;100.00;100845.59;5005463;28;20778;-80
2021/11/14 11:37:14;;;;;;;8.88;2.13;;;;;;;14.58;100.00;100854.31;4996293;28;20060;-80
2021/11/14 11:40:18;;;;;;;9.13;2.17;;;;;;;14.74;100.00;100851.09;4987287;28;20051;-80
2021/11/14 11:43:21;;;;;;;4.95;2.30;;;;;;;15.16;100.00;100848.81;4983715;28;20582;-80
2021/11/14 11:46:31;;;;;;;19.95;4.63;;;;;;;14.67;100.00;100847.84;4987274;28;20599;-80
2021/11/14 11:49:36;;;;;;;12.43;2.80;;;;;;;14.86;100.00;100852.84;4987015;28;20071;-80
2021/11/14 11:52:42;;;;;;;9.32;2.78;;;;;;;14.95;100.00;100849.94;4985778;28;20096;-80
2021/11/14 11:55:45;;;;;;;12.15;2.17;;;;;;;15.03;100.00;100855.94;4987061;28;20166;-80
2021/11/14 11:58:52;;;;;;;10.35;3.33;;;;;;;15.04;100.00;100852.69;4985686;28;20056;-81
2021/11/14 12:01:57;;;;;;;5.75;1.65;;;;;;;15.17;100.00;100850.38;4985716;28;20213;-81
2021/11/14 12:05:06;;;;;;;10.43;2.30;;;;;;;15.24;100.00;100842.81;4997810;28;20052;-80
2021/11/14 12:08:13;;;;;;;9.73;2.10;;;;;;;15.33;100.00;100842.72;5001136;28;20579;-82
2021/11/14 12:11:31;;;;;;;8.48;2.67;;;;;;;15.34;100.00;100850.66;4998998;28;20108;-81
2021/11/14 12:14:34;;;;;;;10.93;2.08;;;;;;;15.61;100.00;100846.78;4997039;28;20272;-80
2021/11/14 12:17:38;;;;;;;9.50;1.55;;;;;;;15.75;100.00;100843.97;4995976;28;20064;-81
2021/11/14 12:20:54;;;;;;;7.22;2.10;;;;;;;15.92;100.00;100849.81;4998570;28;20204;-81
2021/11/14 12:24:02;;;;;;;4.00;1.50;;;;;;;15.71;100.00;100851.03;4999262;28;20256;-80
2021/11/14 12:27:06;;;;;;;2.78;1.48;;;;;;;16.01;100.00;100843.31;4999337;28;20328;-79
2021/11/14 12:30:15;;;;;;;2.67;1.30;;;;;;;15.98;100.00;100839.47;5002083;28;20060;-79
2021/11/14 12:33:23;;;;;;;5.60;1.88;;;;;;;16.27;100.00;100850.59;5001758;28;20771;-80
2021/11/14 12:36:37;;;;;;;6.50;1.73;;;;;;;16.56;100.00;100842.06;5007272;28;20049;-79
2021/11/14 12:39:45;;;;;;;3.00;0.85;;;;;;;16.54;100.00;100841.78;5001458;28;20095;-79
2021/11/14 12:42:50;;;;;;;6.07;2.13;;;;;;;16.38;100.00;100845.09;4997893;28;20041;-80
2021/11/14 12:46:15;;;;;;;11.77;2.20;;;;;;;16.35;100.00;100845.34;4990289;28;20060;-79
2021/11/14 12:49:19;;;;;;;4.93;1.60;;;;;;;16.18;100.00;100842.28;4982103;28;20704;-79
2021/11/14 12:52:34;;;;;;;2.50;0.80;;;;;;;16.28;100.00;100835.28;4979937;28;20188;-78
2021/11/14 12:55:40;;;;;;;1.95;1.15;;;;;;;16.13;100.00;100840.19;4983516;28;20129;-79
2021/11/14 12:58:43;;;;;;;4.30;1.30;;;;;;;16.46;100.00;100834.19;4982874;28;20049;-78
2021/11/14 13:01:59;;;;;;;8.38;2.20;;;;;;;16.60;100.00;100839.78;4984696;28;20045;-81
2021/11/14 13:05:08;;;;;;;8.60;1.55;;;;;;;16.72;100.00;100837.13;4980908;28;20052;-80
2021/11/14 13:08:24;;;;;;;4.57;0.95;;;;;;;16.56;100.00;100839.25;4979670;28;20163;-80
2021/11/14 13:11:29;;;;;;;2.47;0.70;;;;;;;16.49;100.00;100834.00;4990557;28;20088;-80
2021/11/14 13:14:34;;;;;;;2.08;0.77;;;;;;;16.59;100.00;100837.47;5000543;28;20155;-80
2021/11/14 13:17:47;;;;;;;4.53;1.63;;;;;;;16.53;100.00;100834.59;5002984;28;20049;-79
2021/11/14 13:20:54;;;;;;;2.28;0.88;;;;;;;16.50;100.00;100835.56;5006902;28;20123;-80
2021/11/14 13:24:14;;;;;;;4.13;1.45;;;;;;;16.45;100.00;100827.03;5001346;28;20075;-79
2021/11/14 13:27:19;;;;;;;1.20;0.68;;;;;;;16.36;100.00;100830.78;5008980;28;20205;-79
2021/11/14 13:30:24;;;;;;;1.85;1.10;;;;;;;16.31;100.00;100841.94;5014345;28;20763;-78
2021/11/14 13:33:27;;;;;;;2.58;2.05;;;;;;;16.12;100.00;100833.00;5006194;28;20205;-82
2021/11/14 13:36:34;;;;;;;8.73;0.70;;;;;;;15.86;100.00;100829.31;5005160;28;20072;-78
2021/11/14 13:40:00;;;;;;;3.50;0.85;;;;;;;16.01;100.00;100843.31;5006971;28;20512;-78
2021/11/14 13:43:10;;;;;;;7.38;1.17;;;;;;;15.99;100.00;100838.19;5005515;28;20735;-79
2021/11/14 13:46:15;;;;;;;2.42;1.05;;;;;;;15.96;100.00;100835.59;5007718;28;20044;-82
2021/11/14 13:49:19;;;;;;;2.40;1.10;;;;;;;15.78;100.00;100830.97;5007752;28;20060;-83
2021/11/14 13:52:24;;;;;;;5.70;1.08;;;;;;;15.72;100.00;100835.75;5008370;28;20048;-80
2021/11/14 13:55:42;;;;;;;5.13;1.65;;;;;;;15.54;100.00;100830.34;5006910;28;20041;-79
2021/11/14 13:58:53;;;;;;;2.72;1.23;;;;;;;15.48;100.00;100832.28;5003726;28;20111;-81
2021/11/14 14:01:58;;;;;;;2.60;1.20;;;;;;;15.43;100.00;100827.31;5006477;28;20299;-84
2021/11/14 14:05:09;;;;;;;9.98;1.63;;;;;;;15.47;100.00;100825.91;4994218;28;20678;-85
2021/11/14 14:08:13;;;;;;;6.03;0.68;;;;;;;15.54;100.00;100835.97;4995872;28;20540;-83
2021/11/14 14:11:17;;;;;;;5.00;1.58;;;;;;;15.63;100.00;100841.47;4995337;28;20345;-83
2021/11/14 14:14:22;;;;;;;2.85;1.73;;;;;;;15.66;100.00;100846.09;4981996;28;20255;-84
2021/11/14 14:17:27;;;;;;;1.83;0.63;;;;;;;15.70;100.00;100835.47;4974582;28;20056;-83
2021/11/14 14:20:30;;;;;;;3.28;0.95;;;;;;;15.68;100.00;100837.97;4974397;28;20065;-82
2021/11/14 14:23:37;;;;;;;3.08;1.17;;;;;;;15.69;100.00;100842.31;4974754;28;20072;-84